Time;durP1;ratioP1;P1;durP2;ratioP2;P2;SDS_P1;SDS_P2;PMS_P1;PMS_P2;Temp;Humidity;BMP_temperature;BMP_pressure;BME280_temperature;BME280_humidity;BME280_pressure;Samples;Min_cycle;Max_cycle;Signal;HPM_P1;HPM_P2
2021/11/19 00:00:25;;;;;;;;;31.00;26.50;;;;;10.84;71.48;103002.88;4923684;28;45435;-54
2021/11/19 00:02:50;;;;;;;;;39.00;32.50;;;;;10.82;71.32;103002.03;4926449;28;45648;-53
2021/11/19 00:05:16;;;;;;;;;40.50;28.25;;;;;10.82;71.51;102997.66;4923929;28;46234;-52
2021/11/19 00:07:42;;;;;;;;;39.50;30.50;;;;;10.83;71.40;103002.03;4935493;28;45159;-53
2021/11/19 00:10:09;;;;;;;;;29.00;26.75;;;;;10.84;71.36;103006.38;4929374;28;45308;-48
2021/11/19 00:12:35;;;;;;;;;25.00;23.25;;;;;10.83;71.73;103009.06;4923761;28;45551;-53
2021/11/19 00:15:00;;;;;;;;;34.00;26.00;;;;;10.83;71.23;103003.78;4930277;28;46274;-54
2021/11/19 00:17:26;;;;;;;;;34.00;28.50;;;;;10.85;71.53;103004.63;4923568;28;45352;-52
2021/11/19 00:19:51;;;;;;;;;33.25;26.50;;;;;10.88;71.11;103007.16;4922735;28;45301;-51
2021/11/19 00:22:19;;;;;;;;;31.00;26.50;;;;;10.91;70.87;103004.47;4923808;28;45483;-52
2021/11/19 00:24:45;;;;;;;;;25.75;22.00;;;;;10.92;71.22;103000.91;4923667;28;46139;-53
2021/11/19 00:27:14;;;;;;;;;30.25;22.75;;;;;10.94;70.79;103000.88;4923387;28;45278;-53
2021/11/19 00:29:40;;;;;;;;;30.00;26.00;;;;;10.95;71.30;102986.78;4923620;28;45240;-53
2021/11/19 00:32:07;;;;;;;;;35.75;33.75;;;;;10.95;71.09;102989.44;4923485;28;45494;-54
2021/11/19 00:34:33;;;;;;;;;41.00;29.00;;;;;10.96;70.73;102983.25;4923358;28;46274;-50
2021/11/19 00:37:00;;;;;;;;;29.00;25.25;;;;;10.97;71.08;102988.47;4923127;28;45335;-53
2021/11/19 00:39:27;;;;;;;;;30.25;24.50;;;;;10.94;71.00;102999.09;4923579;28;45271;-54
2021/11/19 00:41:54;;;;;;;;;32.75;23.50;;;;;10.94;70.86;102979.78;4923448;28;45177;-54
2021/11/19 00:44:21;;;;;;;;;31.75;22.75;;;;;10.95;70.91;102984.16;4923376;28;45485;-53
2021/11/19 00:46:48;;;;;;;;;28.50;25.25;;;;;10.95;70.93;102987.66;4923286;28;45450;-54
2021/11/19 00:49:16;;;;;;;;;30.00;23.75;;;;;10.92;70.55;102984.25;4923525;28;45239;-52
2021/11/19 00:51:46;;;;;;;;;35.00;28.50;;;;;10.95;71.00;102990.28;4923029;28;45265;-54
2021/11/19 00:54:12;;;;;;;;;31.75;26.25;;;;;10.97;70.93;102991.09;4923023;28;45366;-53
2021/11/19 00:56:41;;;;;;;;;26.25;24.00;;;;;10.98;70.95;102990.22;4906017;28;45376;-50
2021/11/19 00:59:10;;;;;;;;;27.00;22.00;;;;;10.99;70.82;102988.47;4923596;28;45232;-54
2021/11/19 01:01:46;;;;;;;;;28.00;24.50;;;;;11.01;70.62;102984.88;4925347;28;45369;-52
2021/11/19 01:04:13;;;;;;;;;27.25;21.25;;;;;10.99;70.51;102985.81;4924656;28;45379;-54
2021/11/19 01:06:39;;;;;;;;;23.00;21.50;;;;;10.99;70.58;102984.03;4923041;28;45410;-49
2021/11/19 01:09:10;;;;;;;;;41.00;28.75;;;;;11.02;70.57;102983.97;4922970;28;45237;-49
2021/11/19 01:11:36;;;;;;;;;27.00;22.00;;;;;11.04;70.87;102979.50;4923321;28;45453;-52
2021/11/19 01:14:04;;;;;;;;;28.00;26.75;;;;;11.07;70.80;102978.59;4922793;28;45365;-53
2021/11/19 01:16:51;;;;;;;;;28.25;24.00;;;;;11.08;70.42;102978.53;4923023;28;45197;-52
2021/11/19 01:19:25;;;;;;;;;28.00;20.25;;;;;11.07;70.58;102974.16;4923317;28;45184;-53
2021/11/19 01:22:03;;;;;;;;;25.50;20.25;;;;;11.09;70.26;102969.72;4922802;28;45388;-51
2021/11/19 01:24:30;;;;;;;;;31.50;20.50;;;;;11.09;70.31;102971.50;4922815;28;45356;-51
2021/11/19 01:26:56;;;;;;;;;25.25;22.00;;;;;11.08;70.11;102967.97;4922801;28;45395;-49
2021/11/19 01:29:22;;;;;;;;;26.50;21.50;;;;;11.08;70.53;102964.47;4922915;28;45439;-50
2021/11/19 01:31:53;;;;;;;;;27.75;23.75;;;;;11.08;70.23;102975.03;4925312;28;45357;-53
2021/11/19 01:34:20;;;;;;;;;33.00;26.25;;;;;11.10;70.47;102968.81;4926124;28;45507;-53
2021/11/19 01:36:46;;;;;;;;;20.50;18.00;;;;;11.12;70.37;102961.72;4925752;28;45469;-50
2021/11/19 01:39:15;;;;;;;;;27.75;22.25;;;;;11.13;70.30;102959.94;4926327;28;45352;-52
2021/11/19 01:41:46;;;;;;;;;30.50;22.50;;;;;11.14;70.36;102966.97;4926007;28;45295;-53
2021/11/19 01:44:14;;;;;;;;;31.50;23.25;;;;;11.17;70.16;102969.53;4926119;28;45929;-51
2021/11/19 01:46:44;;;;;;;;;28.00;22.50;;;;;11.15;70.25;102968.69;4925788;28;45225;-54
2021/11/19 01:49:10;;;;;;;;;24.50;21.00;;;;;11.12;70.03;102966.13;4925969;28;45503;-50
2021/11/19 01:51:50;;;;;;;;;28.50;20.00;;;;;11.12;70.14;102972.25;4925502;28;45332;-51
2021/11/19 01:54:34;;;;;;;;;28.00;21.00;;;;;11.14;70.05;102972.25;4925057;28;46309;-51
2021/11/19 01:57:02;;;;;;;;;26.50;21.00;;;;;11.16;70.26;102959.88;4925840;28;45324;-49
2021/11/19 01:59:40;;;;;;;;;30.25;23.50;;;;;11.18;70.05;102963.31;4925636;28;45238;-52
2021/11/19 02:02:16;;;;;;;;;23.50;22.75;;;;;11.18;70.23;102958.91;4930986;28;45377;-52
2021/11/19 02:04:51;;;;;;;;;27.00;23.75;;;;;11.19;69.96;102963.28;4914098;28;45986;-53
2021/11/19 02:07:26;;;;;;;;;24.25;22.25;;;;;11.18;69.81;102960.69;4925663;28;45338;-53
2021/11/19 02:09:52;;;;;;;;;28.25;24.00;;;;;11.17;70.05;102957.19;4925729;28;45169;-48
2021/11/19 02:12:47;;;;;;;;;28.00;23.75;;;;;11.17;69.87;102956.31;4925484;28;45279;-49
2021/11/19 02:15:15;;;;;;;;;27.25;25.00;;;;;11.19;69.88;102951.88;4909155;28;46126;-51
2021/11/19 02:17:45;;;;;;;;;31.75;23.50;;;;;11.18;69.96;102953.63;4925683;28;45413;-50
2021/11/19 02:20:15;;;;;;;;;26.25;18.75;;;;;11.19;69.63;102946.59;4907020;28;45389;-52
2021/11/19 02:22:47;;;;;;;;;26.25;22.75;;;;;11.22;69.97;102954.44;4925708;28;45249;-53
2021/11/19 02:25:21;;;;;;;;;25.75;22.75;;;;;11.22;69.64;102958.81;4925275;28;45412;-52
2021/11/19 02:27:58;;;;;;;;;23.25;21.00;;;;;11.19;69.64;102947.44;4925549;28;45431;-50
2021/11/19 02:30:34;;;;;;;;;30.50;23.25;;;;;11.24;69.99;102960.53;4925317;28;45261;-50
2021/11/19 02:33:07;;;;;;;;;22.25;16.75;;;;;11.25;69.49;102959.63;4925421;28;45475;-52
2021/11/19 02:35:38;;;;;;;;;29.00;21.25;;;;;11.27;69.72;102955.16;4925139;28;45471;-53
2021/11/19 02:38:10;;;;;;;;;30.75;24.50;;;;;11.28;69.94;102953.38;4925045;28;45241;-55
2021/11/19 02:40:38;;;;;;;;;19.25;16.25;;;;;11.29;69.49;102960.41;4925479;28;45316;-54
2021/11/19 02:43:29;;;;;;;;;26.50;22.75;;;;;11.30;69.92;102948.97;4924374;28;45630;-53
2021/11/19 02:45:55;;;;;;;;;32.50;27.00;;;;;11.28;69.61;102950.75;4919544;28;46075;-54
2021/11/19 02:48:25;;;;;;;;;26.00;21.75;;;;;11.26;69.73;102953.44;4925057;28;45283;-53
2021/11/19 02:50:53;;;;;;;;;26.50;22.25;;;;;11.22;69.05;102957.09;4924816;28;45275;-54
2021/11/19 02:53:19;;;;;;;;;26.75;22.00;;;;;11.18;69.81;102956.28;4924978;28;45350;-53
2021/11/19 02:55:47;;;;;;;;;29.50;23.75;;;;;11.18;69.61;102960.69;4924645;28;46269;-53
2021/11/19 02:58:18;;;;;;;;;30.75;24.25;;;;;11.17;69.53;102958.97;4925087;28;45280;-54
2021/11/19 03:00:46;;;;;;;;;29.75;25.00;;;;;11.14;69.80;102943.22;4925052;28;45320;-54
2021/11/19 03:03:12;;;;;;;;;33.00;25.00;;;;;11.12;69.71;102956.44;4930315;28;45272;-55
2021/11/19 03:05:37;;;;;;;;;26.50;23.50;;;;;11.12;69.88;102952.94;4924421;28;45288;-54
2021/11/19 03:08:03;;;;;;;;;28.50;23.75;;;;;11.11;69.56;102952.06;4924927;28;45177;-54
2021/11/19 03:10:38;;;;;;;;;25.00;22.25;;;;;11.11;69.81;102952.06;4924793;28;45270;-54
2021/11/19 03:13:06;;;;;;;;;28.50;24.75;;;;;11.11;69.89;102946.78;4924794;28;45569;-52
2021/11/19 03:15:38;;;;;;;;;27.25;22.50;;;;;11.11;69.86;102941.50;4924624;28;46002;-54
2021/11/19 03:18:05;;;;;;;;;30.00;24.75;;;;;11.13;70.12;102949.38;4924734;28;45253;-52
2021/11/19 03:20:31;;;;;;;;;31.00;27.25;;;;;11.14;69.92;102944.09;4924473;28;45345;-50
2021/11/19 03:22:57;;;;;;;;;28.00;24.75;;;;;11.16;69.87;102944.91;4924846;28;45513;-53
2021/11/19 03:25:31;;;;;;;;;26.75;23.25;;;;;11.19;69.85;102938.69;4924111;28;45564;-53
2021/11/19 03:27:57;;;;;;;;;32.00;24.75;;;;;11.17;69.66;102930.81;4923116;28;45337;-53
2021/11/19 03:30:25;;;;;;;;;35.00;23.00;;;;;11.21;69.74;102934.22;4924429;28;45396;-53
2021/11/19 03:32:51;;;;;;;;;27.75;22.25;;;;;11.22;69.63;102943.91;4924548;28;45453;-52
2021/11/19 03:35:18;;;;;;;;;25.50;21.25;;;;;11.24;69.89;102938.56;4923901;28;45289;-55
2021/11/19 03:37:46;;;;;;;;;28.75;25.75;;;;;11.26;69.64;102932.34;4924349;28;45165;-51
2021/11/19 03:40:15;;;;;;;;;25.00;19.50;;;;;11.27;69.52;102930.56;4922899;28;45380;-54
2021/11/19 03:42:40;;;;;;;;;25.25;22.75;;;;;11.29;69.83;102936.66;4924399;28;45310;-53
2021/11/19 03:45:11;;;;;;;;;20.75;16.00;;;;;11.30;69.32;102938.41;4923982;28;45281;-53
2021/11/19 03:47:40;;;;;;;;;33.50;23.00;;;;;11.28;69.32;102938.44;4924180;28;45360;-54
2021/11/19 03:50:11;;;;;;;;;31.50;23.00;;;;;11.25;69.27;102933.25;4923999;28;45436;-54
2021/11/19 03:52:39;;;;;;;;;34.00;24.25;;;;;11.26;69.69;102932.34;4924156;28;45442;-54
2021/11/19 03:55:14;;;;;;;;;24.75;21.00;;;;;11.28;69.76;102934.94;4923702;28;45548;-51
2021/11/19 03:57:40;;;;;;;;;22.75;21.00;;;;;11.27;69.47;102926.16;4923884;28;45264;-53
2021/11/19 04:00:18;;;;;;;;;24.25;18.00;;;;;11.25;69.58;102930.59;4924163;28;45281;-53
2021/11/19 04:02:44;;;;;;;;;35.25;23.75;;;;;11.25;69.50;102935.88;4929384;28;45239;-50
2021/11/19 04:05:10;;;;;;;;;33.00;24.00;;;;;11.26;69.45;102934.97;4923530;28;46214;-53
2021/11/19 04:07:36;;;;;;;;;24.75;22.00;;;;;11.28;69.50;102935.78;4923849;28;45337;-55
2021/11/19 04:10:05;;;;;;;;;27.00;21.25;;;;;11.30;69.46;102930.50;4923671;28;45365;-55
2021/11/19 04:12:30;;;;;;;;;29.75;22.25;;;;;11.32;69.03;102936.59;4923697;28;45250;-54
2021/11/19 04:14:56;;;;;;;;;29.50;22.25;;;;;11.33;69.57;102936.53;4923716;28;46053;-53
2021/11/19 04:17:21;;;;;;;;;24.50;20.50;;;;;11.36;69.35;102940.84;4923665;28;45367;-52
2021/11/19 04:19:47;;;;;;;;;37.50;23.25;;;;;11.35;69.49;102934.72;4923698;28;45341;-52
2021/11/19 04:22:16;;;;;;;;;31.25;26.00;;;;;11.34;69.69;102932.13;4923603;28;45344;-54
2021/11/19 04:24:51;;;;;;;;;27.75;22.00;;;;;11.33;69.27;102933.03;4923079;28;45458;-54
2021/11/19 04:27:17;;;;;;;;;32.75;27.00;;;;;11.30;69.41;102927.84;4923307;28;45476;-52
2021/11/19 04:29:44;;;;;;;;;29.25;26.00;;;;;11.28;69.53;102930.50;4923614;28;45332;-53
2021/11/19 04:32:10;;;;;;;;;30.00;24.50;;;;;11.27;69.38;102931.41;4923725;28;45259;-49
2021/11/19 04:34:38;;;;;;;;;29.25;25.75;;;;;11.29;69.67;102939.28;4923458;28;46137;-51
2021/11/19 04:37:04;;;;;;;;;31.75;27.50;;;;;11.31;69.34;102930.44;4923741;28;45472;-54
2021/11/19 04:39:30;;;;;;;;;25.00;22.25;;;;;11.31;69.27;102930.44;4923405;28;45320;-53
2021/11/19 04:41:56;;;;;;;;;28.00;23.25;;;;;11.33;69.31;102936.53;4923572;28;46195;-52
2021/11/19 04:44:22;;;;;;;;;30.75;24.25;;;;;11.33;69.25;102933.03;4923230;28;46195;-52
2021/11/19 04:46:48;;;;;;;;;23.50;22.00;;;;;11.33;69.27;102936.53;4923531;28;45485;-54
2021/11/19 04:49:15;;;;;;;;;19.00;13.75;;;;;11.32;69.50;102928.66;4923380;28;45431;-54
2021/11/19 04:51:42;;;;;;;;;29.25;24.50;;;;;11.30;69.33;102923.44;4923343;28;45245;-54
2021/11/19 04:54:10;;;;;;;;;31.25;21.00;;;;;11.30;69.14;102930.50;4923020;28;45430;-52
2021/11/19 04:56:37;;;;;;;;;20.25;19.00;;;;;11.28;69.17;102932.28;4923197;28;45438;-54
2021/11/19 04:59:03;;;;;;;;;30.00;21.75;;;;;11.26;69.72;102928.84;4923296;28;45292;-51
2021/11/19 05:01:33;;;;;;;;;24.75;19.75;;;;;11.26;69.19;102924.41;4924675;28;45340;-54
2021/11/19 05:03:59;;;;;;;;;27.50;22.50;;;;;11.27;69.33;102926.16;4926237;28;45295;-53
2021/11/19 05:06:25;;;;;;;;;29.00;25.50;;;;;11.27;69.15;102933.19;4925016;28;45269;-53
2021/11/19 05:08:51;;;;;;;;;29.00;22.75;;;;;11.27;69.54;102927.91;4926548;28;45277;-54
2021/11/19 05:11:21;;;;;;;;;8.50;3.75;;;;;11.27;69.50;102930.56;4926684;28;45575;-54
2021/11/19 05:13:47;;;;;;;;;32.25;27.25;;;;;11.27;69.28;102928.78;4926352;28;45240;-54
2021/11/19 05:16:14;;;;;;;;;29.00;22.25;;;;;11.26;69.44;102927.06;4926456;28;45373;-55
2021/11/19 05:18:41;;;;;;;;;27.75;22.50;;;;;11.25;69.42;102919.19;4926648;28;46592;-50
2021/11/19 05:21:09;;;;;;;;;10.25;3.00;;;;;11.24;69.38;102928.00;4926330;28;45280;-52
2021/11/19 05:23:35;;;;;;;;;31.25;23.00;;;;;11.22;69.41;102920.16;4926103;28;46323;-51
2021/11/19 05:26:00;;;;;;;;;27.25;24.75;;;;;11.22;69.15;102920.16;4926328;28;45426;-53
2021/11/19 05:28:27;;;;;;;;;23.75;19.75;;;;;11.23;69.56;102921.88;4926329;28;45289;-52
2021/11/19 05:30:53;;;;;;;;;38.00;26.50;;;;;11.26;69.37;102915.63;4926161;28;45157;-49
2021/11/19 05:33:22;;;;;;;;;33.75;22.75;;;;;11.29;69.26;102918.19;4926071;28;45289;-54
2021/11/19 05:35:50;;;;;;;;;27.50;20.50;;;;;11.31;69.48;102922.53;4926004;28;45366;-56
2021/11/19 05:38:17;;;;;;;;;22.50;19.75;;;;;11.34;69.21;102925.06;4926050;28;45315;-51
2021/11/19 05:40:43;;;;;;;;;31.25;25.75;;;;;11.35;69.18;102924.16;4926266;28;45458;-55
2021/11/19 05:43:08;;;;;;;;;29.25;25.00;;;;;11.37;69.34;102932.03;4926047;28;45259;-53
2021/11/19 05:45:34;;;;;;;;;24.25;21.00;;;;;11.39;68.99;102932.88;4926108;28;45324;-53
2021/11/19 05:48:01;;;;;;;;;19.75;16.75;;;;;11.38;69.04;102936.44;4926110;28;45264;-53
2021/11/19 05:50:30;;;;;;;;;29.50;23.50;;;;;11.38;69.13;102932.00;4925689;28;45494;-55
2021/11/19 05:53:01;;;;;;;;;28.00;26.00;;;;;11.37;68.83;102929.38;4925724;28;45429;-54
2021/11/19 05:55:29;;;;;;;;;31.75;21.75;;;;;11.35;69.09;102936.50;4925605;28;45434;-55
2021/11/19 05:57:55;;;;;;;;;24.50;19.50;;;;;11.36;69.04;102941.72;4925838;28;45409;-51
2021/11/19 06:00:25;;;;;;;;;47.75;37.50;;;;;11.35;69.08;102937.34;4926084;28;45408;-54
2021/11/19 06:02:52;;;;;;;;;40.50;34.00;;;;;11.36;69.23;102939.09;4930685;28;46619;-51
2021/11/19 06:05:18;;;;;;;;;33.50;26.00;;;;;11.36;69.14;102938.22;4925677;28;45470;-55
2021/11/19 06:07:44;;;;;;;;;21.75;20.25;;;;;11.35;68.83;102940.00;4925879;28;45256;-51
2021/11/19 06:10:11;;;;;;;;;21.50;19.50;;;;;11.34;69.05;102938.25;4925656;28;45375;-53
2021/11/19 06:12:43;;;;;;;;;34.75;22.75;;;;;11.34;68.83;102937.41;4925457;28;45232;-55
2021/11/19 06:15:17;;;;;;;;;21.50;17.00;;;;;11.35;68.57;102940.00;4925430;28;45294;-54
2021/11/19 06:17:46;;;;;;;;;29.00;19.75;;;;;11.36;68.83;102932.94;4923104;28;45458;-52
2021/11/19 06:20:19;;;;;;;;;26.75;21.25;;;;;11.37;68.88;102942.59;4925471;28;45261;-55
2021/11/19 06:22:51;;;;;;;;;24.75;20.50;;;;;11.36;68.97;102944.34;4925152;28;45474;-53
2021/11/19 06:25:24;;;;;;;;;24.75;23.00;;;;;11.36;68.95;102946.13;4925247;28;45399;-55
2021/11/19 06:27:52;;;;;;;;;27.25;21.25;;;;;11.35;68.93;102942.63;4925572;28;45244;-55
2021/11/19 06:30:20;;;;;;;;;34.00;25.25;;;;;11.34;68.93;102938.25;4925242;28;45275;-54
2021/11/19 06:32:46;;;;;;;;;22.25;21.50;;;;;11.36;68.76;102938.22;4925202;28;45361;-55
2021/11/19 06:35:11;;;;;;;;;28.50;20.75;;;;;11.35;68.53;102937.34;4924931;28;45222;-56
2021/11/19 06:37:37;;;;;;;;;26.50;20.50;;;;;11.36;68.46;102941.72;4924102;28;45245;-54
2021/11/19 06:40:06;;;;;;;;;24.50;20.50;;;;;11.35;68.35;102944.41;4924924;28;45213;-52
2021/11/19 06:42:31;;;;;;;;;28.00;23.00;;;;;11.32;68.52;102957.69;4924584;28;45402;-55
2021/11/19 06:44:57;;;;;;;;;44.00;35.25;;;;;11.30;68.87;102954.25;4888252;29;45286;-55
2021/11/19 06:47:22;;;;;;;;;21.50;20.75;;;;;11.31;68.57;102954.19;4916420;28;45470;-54
2021/11/19 06:49:48;;;;;;;;;22.50;20.25;;;;;11.33;68.66;102951.50;4924534;28;45293;-54
2021/11/19 06:52:13;;;;;;;;;26.50;22.50;;;;;11.34;68.47;102948.81;4924747;28;45361;-52
2021/11/19 06:54:40;;;;;;;;;28.00;21.00;;;;;11.35;68.75;102953.19;4924574;28;45387;-55
2021/11/19 06:57:08;;;;;;;;;31.25;23.75;;;;;11.37;68.46;102950.50;4925061;28;45269;-55
2021/11/19 06:59:34;;;;;;;;;26.25;21.75;;;;;11.35;68.54;102953.19;4925086;28;45332;-55
2021/11/19 07:01:59;;;;;;;;;30.25;22.25;;;;;11.34;68.69;102951.47;4930137;28;45464;-53
2021/11/19 07:04:25;;;;;;;;;31.75;21.75;;;;;11.35;68.77;102953.19;4923559;28;45248;-56
2021/11/19 07:06:50;;;;;;;;;33.75;30.25;;;;;11.38;68.70;102962.81;4924849;28;45475;-54
2021/11/19 07:09:18;;;;;;;;;29.00;24.25;;;;;11.36;68.71;102957.56;4924617;28;45292;-55
2021/11/19 07:11:45;;;;;;;;;34.00;25.50;;;;;11.36;68.88;102964.59;4924438;28;45429;-56
2021/11/19 07:14:11;;;;;;;;;29.00;21.25;;;;;11.37;68.79;102967.19;4924374;28;45199;-55
2021/11/19 07:16:37;;;;;;;;;29.50;22.50;;;;;11.37;68.69;102972.47;4924857;28;45294;-56
2021/11/19 07:19:06;;;;;;;;;32.50;21.50;;;;;11.37;68.55;102969.84;4924463;28;45496;-56
2021/11/19 07:21:32;;;;;;;;;27.00;22.00;;;;;11.34;68.66;102979.63;4924167;28;45448;-56
2021/11/19 07:23:59;;;;;;;;;30.00;24.50;;;;;11.33;68.54;102978.75;4924329;28;45425;-55
2021/11/19 07:26:27;;;;;;;;;27.50;21.25;;;;;11.34;68.63;102980.50;4924416;28;45244;-55
2021/11/19 07:28:53;;;;;;;;;25.00;21.25;;;;;11.38;68.71;102986.56;4923859;28;45410;-53
2021/11/19 07:31:20;;;;;;;;;24.50;19.50;;;;;11.41;68.72;102983.84;4923988;28;45349;-55
2021/11/19 07:33:46;;;;;;;;;22.50;20.75;;;;;11.43;68.66;102985.50;4924338;28;45462;-56
2021/11/19 07:36:16;;;;;;;;;20.25;17.50;;;;;11.45;68.26;102991.63;4924004;28;45438;-54
2021/11/19 07:38:43;;;;;;;;;22.75;19.50;;;;;11.49;68.05;102995.06;4923924;28;45424;-56
2021/11/19 07:41:13;;;;;;;;;31.00;20.25;;;;;11.51;68.72;102998.50;4923711;28;45464;-56
2021/11/19 07:43:42;;;;;;;;;17.75;17.25;;;;;11.53;68.71;103001.97;4924095;28;45385;-56
2021/11/19 07:46:10;;;;;;;;;44.50;33.00;;;;;11.57;68.32;103008.03;4924349;28;45649;-54
2021/11/19 07:48:38;;;;;;;;;35.75;31.00;;;;;11.59;68.27;103003.56;4924106;28;45393;-55
2021/11/19 07:51:11;;;;;;;;;25.75;19.75;;;;;11.61;68.22;103007.03;4923308;28;45424;-56
2021/11/19 07:53:37;;;;;;;;;27.00;22.00;;;;;11.62;68.31;103007.00;4922111;28;45425;-55
2021/11/19 07:56:05;;;;;;;;;26.50;18.75;;;;;11.66;68.38;103011.28;4924002;28;45274;-56
2021/11/19 07:58:31;;;;;;;;;27.75;25.25;;;;;11.67;68.55;103005.09;4923952;28;45187;-55
2021/11/19 08:00:58;;;;;;;;;30.25;24.00;;;;;11.70;68.50;103010.31;4923703;28;46157;-53
2021/11/19 08:03:24;;;;;;;;;33.75;24.50;;;;;11.72;68.24;103007.63;4915761;28;45355;-56
2021/11/19 08:05:56;;;;;;;;;24.25;20.50;;;;;11.74;68.40;103008.44;4923684;28;45266;-56
2021/11/19 08:08:23;;;;;;;;;33.00;23.00;;;;;11.78;68.17;103012.75;4923932;28;45346;-55
2021/11/19 08:10:49;;;;;;;;;23.75;21.75;;;;;11.82;67.84;103021.47;4923520;28;46233;-55
2021/11/19 08:13:15;;;;;;;;;26.50;22.50;;;;;11.84;67.98;103017.84;4923707;28;45193;-56
2021/11/19 08:15:41;;;;;;;;;22.75;22.25;;;;;11.87;68.11;103020.44;4923607;28;45333;-54
2021/11/19 08:18:30;;;;;;;;;23.00;20.00;;;;;11.91;67.71;103019.41;4903511;29;45483;-54
2021/11/19 08:20:58;;;;;;;;;22.75;18.00;;;;;11.91;67.93;103019.41;4911588;28;45420;-54
2021/11/19 08:23:33;;;;;;;;;28.50;22.25;;;;;11.93;68.09;103020.25;4923365;28;45420;-56
2021/11/19 08:26:06;;;;;;;;;29.75;23.25;;;;;11.95;67.81;103015.78;4923668;28;45318;-55
2021/11/19 08:28:33;;;;;;;;;28.75;23.50;;;;;11.97;67.66;103013.97;4923826;28;45451;-56
2021/11/19 08:31:01;;;;;;;;;24.50;18.25;;;;;12.00;67.68;103016.50;4923535;28;45250;-56
2021/11/19 08:33:27;;;;;;;;;22.00;20.00;;;;;12.04;67.72;103022.59;4923305;28;45320;-56
2021/11/19 08:35:52;;;;;;;;;23.25;20.75;;;;;12.07;67.86;103019.84;4923501;28;45263;-56
2021/11/19 08:38:21;;;;;;;;;27.50;24.50;;;;;12.08;67.70;103010.13;4923682;28;45381;-55
2021/11/19 08:40:47;;;;;;;;;34.50;23.00;;;;;12.10;67.44;103024.19;4922458;28;46001;-54
2021/11/19 08:43:17;;;;;;;;;29.00;23.00;;;;;12.12;67.57;103017.94;4923344;28;45387;-54
2021/11/19 08:45:43;;;;;;;;;24.75;21.00;;;;;12.15;67.36;103007.28;4923562;28;45522;-54
2021/11/19 08:48:10;;;;;;;;;26.75;23.25;;;;;12.19;67.22;103016.84;4923415;28;45347;-56
2021/11/19 08:50:39;;;;;;;;;22.25;19.25;;;;;12.22;67.19;103010.59;4922919;28;45349;-55
2021/11/19 08:53:08;;;;;;;;;19.75;18.75;;;;;12.26;67.48;103015.75;4923205;28;46169;-56
2021/11/19 08:55:38;;;;;;;;;28.75;20.50;;;;;12.30;67.62;103011.25;4923249;28;45513;-57
2021/11/19 08:58:04;;;;;;;;;23.75;20.00;;;;;12.32;67.47;103006.75;4923253;28;45270;-57
2021/11/19 09:00:35;;;;;;;;;24.50;20.25;;;;;12.37;67.19;103009.28;4922932;28;45873;-55
2021/11/19 09:03:02;;;;;;;;;29.00;23.75;;;;;12.40;67.29;103012.72;4928284;28;45232;-55
2021/11/19 09:05:29;;;;;;;;;30.25;21.00;;;;;12.42;67.14;103002.94;4922901;28;45185;-55
2021/11/19 09:07:55;;;;;;;;;30.00;25.00;;;;;12.43;67.00;103017.91;4923300;28;45234;-55
2021/11/19 09:10:22;;;;;;;;;25.25;18.00;;;;;12.44;66.78;103022.25;4922749;28;46239;-54
2021/11/19 09:12:48;;;;;;;;;31.75;25.00;;;;;12.46;66.89;103016.91;4923031;28;45419;-56
2021/11/19 09:15:17;;;;;;;;;38.25;25.25;;;;;12.51;66.83;103021.16;4923028;28;45453;-56
2021/11/19 09:18:05;;;;;;;;;31.00;20.75;;;;;12.57;66.50;103023.63;4923226;28;45562;-56
2021/11/19 09:20:58;;;;;;;;;28.00;28.00;;;;;12.63;66.63;103016.41;4922538;28;45373;-56
2021/11/19 09:23:27;;;;;;;;;34.25;26.25;;;;;12.66;66.29;103026.91;4922639;28;45453;-55
2021/11/19 09:25:56;;;;;;;;;31.75;26.75;;;;;12.65;66.18;103020.75;4922989;28;45321;-56
2021/11/19 09:28:24;;;;;;;;;27.50;24.50;;;;;12.67;66.23;103018.91;4922819;28;45594;-56
2021/11/19 09:30:54;;;;;;;;;28.75;23.00;;;;;12.72;66.19;103026.72;4922563;28;45187;-53
2021/11/19 09:33:22;;;;;;;;;38.00;30.75;;;;;12.75;66.15;103029.25;4922797;28;45324;-55
2021/11/19 09:35:48;;;;;;;;;34.25;28.25;;;;;12.77;65.92;103030.06;4922646;28;45185;-56
2021/11/19 09:38:15;;;;;;;;;34.50;26.25;;;;;12.80;66.19;103038.78;4922607;28;45271;-55
2021/11/19 09:40:45;;;;;;;;;34.50;27.50;;;;;12.83;65.97;103036.03;4922565;28;46079;-55
2021/11/19 09:44:02;;;;;;;;;32.25;26.75;;;;;12.84;66.18;103035.09;4922514;28;45497;-56
2021/11/19 09:46:28;;;;;;;;;53.50;42.25;;;;;12.84;66.09;103039.53;4906179;28;45240;-56
2021/11/19 09:49:23;;;;;;;;;52.50;41.75;;;;;12.83;66.20;103028.09;4922667;28;45541;-53
2021/11/19 09:52:10;;;;;;;;;52.75;39.50;;;;;12.86;66.43;103027.97;4923420;28;45252;-56
2021/11/19 09:54:57;;;;;;;;;47.50;38.00;;;;;12.92;66.21;103032.22;4925449;28;45319;-54
2021/11/19 09:57:22;;;;;;;;;48.00;37.75;;;;;12.94;66.22;103033.00;4925763;28;45248;-53
2021/11/19 10:00:04;;;;;;;;;48.50;38.75;;;;;12.96;66.26;103031.22;4925766;28;45308;-56
2021/11/19 10:02:51;;;;;;;;;61.25;37.25;;;;;12.95;66.09;103031.22;4930900;28;45297;-56
2021/11/19 10:05:36;;;;;;;;;53.50;38.25;;;;;12.94;66.17;103033.00;4925410;28;45351;-56
2021/11/19 10:08:18;;;;;;;;;50.50;37.00;;;;;12.99;66.12;103032.88;4925426;28;45267;-54
2021/11/19 10:10:55;;;;;;;;;47.75;38.00;;;;;13.00;65.84;103030.19;4925566;28;45265;-56
2021/11/19 10:13:48;;;;;;;;;58.50;40.00;;;;;13.02;65.86;103016.88;4925440;28;45521;-54
2021/11/19 10:16:25;;;;;;;;;51.25;39.50;;;;;13.04;65.85;103015.09;4925711;28;45240;-57
2021/11/19 10:19:00;;;;;;;;;50.00;39.75;;;;;13.06;65.87;103018.53;4925621;28;45301;-56
2021/11/19 10:21:29;;;;;;;;;34.75;30.25;;;;;13.07;65.83;103020.25;4925520;28;45520;-54
2021/11/19 10:24:03;;;;;;;;;46.75;36.25;;;;;13.08;65.79;103014.91;4925160;28;45443;-54
2021/11/19 10:26:34;;;;;;;;;42.50;34.00;;;;;13.11;65.72;103006.00;4925495;28;45391;-55
2021/11/19 10:29:14;;;;;;;;;48.75;40.25;;;;;13.10;65.63;103009.56;4925422;28;45240;-56
2021/11/19 10:31:40;;;;;;;;;53.25;40.75;;;;;13.09;65.80;103008.69;4925167;28;45545;-56
2021/11/19 10:34:50;;;;;;;;;51.00;40.75;;;;;13.08;65.68;103012.25;4925207;28;45410;-53
2021/11/19 10:37:40;;;;;;;;;55.00;42.75;;;;;13.06;65.70;103010.59;4903217;28;45366;-55
2021/11/19 10:40:39;;;;;;;;;49.00;39.75;;;;;13.03;66.28;103014.22;4925081;28;45255;-55
2021/11/19 10:43:38;;;;;;;;;54.00;43.00;;;;;13.05;66.19;103012.38;4925112;28;45435;-55
2021/11/19 10:46:37;;;;;;;;;55.00;40.50;;;;;13.07;66.09;103004.38;4924989;28;45453;-54
2021/11/19 10:49:37;;;;;;;;;57.75;41.25;;;;;13.11;66.13;103003.34;4924770;28;45265;-55
2021/11/19 10:52:09;;;;;;;;;48.25;39.25;;;;;13.14;66.05;103005.91;4925035;28;45311;-55
2021/11/19 10:55:11;;;;;;;;;48.25;38.25;;;;;13.17;66.10;103002.28;4924822;28;45494;-53
2021/11/19 10:57:53;;;;;;;;;46.50;34.25;;;;;13.21;66.04;102998.66;4924574;28;45406;-56
2021/11/19 11:00:36;;;;;;;;;44.50;38.00;;;;;13.24;65.80;103002.06;4924895;28;45388;-56
2021/11/19 11:03:14;;;;;;;;;54.00;41.00;;;;;13.23;65.61;103004.75;4929533;28;45476;-56
2021/11/19 11:05:54;;;;;;;;;58.25;40.50;;;;;13.23;65.73;103002.13;4924791;28;45338;-56
2021/11/19 11:08:19;;;;;;;;;51.75;39.75;;;;;13.23;65.70;102999.47;4924800;28;45373;-56
2021/11/19 11:10:47;;;;;;;;;46.75;36.25;;;;;13.25;65.58;102998.50;4924681;28;45176;-56
2021/11/19 11:13:58;;;;;;;;;51.75;39.75;;;;;13.27;65.75;102996.69;4924695;28;45264;-56
2021/11/19 11:16:28;;;;;;;;;43.75;37.00;;;;;13.32;65.59;102991.22;4914494;28;45410;-55
2021/11/19 11:19:00;;;;;;;;;50.00;39.00;;;;;13.37;65.40;102997.22;4924340;28;46180;-54
2021/11/19 11:21:36;;;;;;;;;48.25;39.25;;;;;13.38;65.57;102985.72;4924597;28;45519;-56
2021/11/19 11:24:14;;;;;;;;;49.50;38.25;;;;;13.40;65.23;102989.16;4924283;28;45371;-55